This is the latest recevied weather packets stored in our database for station/object IU1OPQ-3. If no packets are shown the sender has not sent any weather packets the latest 1 day(s).
| Time | Temp. | Humidity | Pressure | Rain* | Wind** | Luminosity | Snow |
|---|---|---|---|---|---|---|---|
| 1777964400 | 8.89° C | 99% | 1013.1 hPa | 0 mm | 0.89 m/s, 230° | - | - |
| 1777963500 | 8.89° C | 99% | 1012.9 hPa | 0 mm | 1.79 m/s, 256° | - | - |
| 1777962600 | 8.89° C | 99% | 1012.9 hPa | 0 mm | 3.58 m/s, 261° | - | - |
| 1777961701 | 8.89° C | 99% | 1013.2 hPa | 0 mm | 3.13 m/s, 252° | - | - |
| 1777960801 | 8.89° C | 99% | 1012.9 hPa | 0 mm | 0.89 m/s, 262° | - | - |
| 1777959900 | 8.89° C | 99% | 1012.8 hPa | 0 mm | 1.79 m/s, 224° | - | - |
| 1777959000 | 8.89° C | 99% | 1012.7 hPa | 0.25 mm | 1.79 m/s, 223° | - | - |
| 1777958101 | 8.89° C | 99% | 1012.5 hPa | 0.51 mm | 2.24 m/s, 217° | - | - |
| 1777957200 | 8.89° C | 99% | 1012.7 hPa | 1.02 mm | 1.79 m/s, 227° | - | - |
| 1777956301 | 8.89° C | 99% | 1012.8 hPa | 1.02 mm | 2.68 m/s, 238° | - | - |
| 1777955401 | 8.89° C | 99% | 1012.6 hPa | 1.02 mm | 3.58 m/s, 257° | - | - |
| 1777954501 | 8.89° C | 99% | 1012.3 hPa | 1.27 mm | 3.58 m/s, 267° | - | - |
| 1777953600 | 8.89° C | 99% | 1013 hPa | 1.02 mm | 4.47 m/s, 228° | - | - |
| 1777952700 | 8.89° C | 98% | 1013.2 hPa | 1.52 mm | 4.47 m/s, 208° | - | - |
| 1777951801 | 8.89° C | 99% | 1013.2 hPa | 1.78 mm | 4.02 m/s, 227° | - | - |
| 1777950901 | 9.44° C | 98% | 1013.2 hPa | 1.52 mm | 4.02 m/s, 224° | - | - |
| 1777950000 | 9.44° C | 98% | 1013.3 hPa | 1.27 mm | 1.79 m/s, 232° | - | - |
| 1777949100 | 9.44° C | 98% | 1013.3 hPa | 1.02 mm | 2.24 m/s, 235° | - | - |
| 1777948200 | 9.44° C | 98% | 1013.6 hPa | 0.76 mm | 4.02 m/s, 198° | - | - |
| 1777947300 | 9.44° C | 98% | 1013.6 hPa | 1.02 mm | 3.13 m/s, 245° | - | - |
| 1777946401 | 9.44° C | 98% | 1013.5 hPa | 1.02 mm | 2.68 m/s, 237° | - | - |
| 1777945500 | 9.44° C | 98% | 1013.7 hPa | 1.78 mm | 1.79 m/s, 213° | - | - |
* Rain latest hour (hover to see other rain measurements)
** Current wind speed in m/s (hover to see current wind gust speed)